createdAt,value
2023-04-18T05:53:14.969Z,19.55
2023-04-18T05:56:10.946Z,20.67
2023-04-18T05:58:39.441Z,16.27
2023-04-18T06:01:14.395Z,19.98
2023-04-18T06:03:45.905Z,20.05
2023-04-18T06:06:14.709Z,21.75
2023-04-18T06:08:44.497Z,22.08
2023-04-18T06:11:15.117Z,17.60
2023-04-18T06:13:43.599Z,19.90
2023-04-18T06:16:12.167Z,19.95
2023-04-18T06:18:40.902Z,23.80
2023-04-18T06:21:09.440Z,19.02
2023-04-18T06:23:38.640Z,18.35
2023-04-18T06:26:09.360Z,18.75
2023-04-18T06:28:37.843Z,21.58
2023-04-18T06:31:06.656Z,20.83
2023-04-18T06:33:35.746Z,17.98
2023-04-18T06:36:04.146Z,24.38
2023-04-18T06:38:36.343Z,15.60
2023-04-18T06:41:05.011Z,17.45
2023-04-18T06:43:37.828Z,20.25
2023-04-18T06:46:14.530Z,27.13
2023-04-18T06:48:42.977Z,22.95
2023-04-18T06:51:11.418Z,20.20
2023-04-18T06:53:39.863Z,18.20
2023-04-18T06:56:08.922Z,21.35
2023-04-18T06:58:40.158Z,19.70
2023-04-18T07:01:08.822Z,18.77
2023-04-18T07:03:46.571Z,19.50
2023-04-18T07:06:15.392Z,23.80
2023-04-18T07:08:44.526Z,22.45
2023-04-18T07:11:14.071Z,21.23
2023-04-18T07:13:45.649Z,18.50
2023-04-18T07:16:21.525Z,20.65
2023-04-18T07:18:50.213Z,18.75
2023-04-18T07:21:18.902Z,18.40
2023-04-18T07:23:48.102Z,18.58
2023-04-18T07:26:16.590Z,22.50
2023-04-18T07:28:47.045Z,19.20
2023-04-18T07:31:16.799Z,17.98
2023-04-18T07:33:45.519Z,20.58
2023-04-18T07:36:14.044Z,20.55
2023-04-18T07:38:45.823Z,21.50
2023-04-18T07:41:17.660Z,26.45
2023-04-18T07:43:47.763Z,21.48
2023-04-18T07:46:16.415Z,21.80
2023-04-18T07:48:44.840Z,24.58
2023-04-18T07:51:13.732Z,24.90
2023-04-18T07:53:43.765Z,21.02
2023-04-18T07:56:14.680Z,19.42
2023-04-18T07:58:43.374Z,24.88
2023-04-18T08:01:15.438Z,27.50
2023-04-18T08:03:44.320Z,20.77
2023-04-18T08:06:12.855Z,25.98
2023-04-18T08:08:41.439Z,17.98
2023-04-18T08:11:10.080Z,20.10
2023-04-18T08:13:38.629Z,21.05
2023-04-18T08:16:07.739Z,18.52
2023-04-18T08:18:37.735Z,19.42
2023-04-18T08:21:06.685Z,18.98
2023-04-18T08:23:35.250Z,18.58
2023-04-18T08:26:03.737Z,23.50
2023-04-18T08:28:32.256Z,20.88
2023-04-18T08:31:00.823Z,26.15
2023-04-18T08:33:32.427Z,28.27
2023-04-18T08:36:02.630Z,19.60
2023-04-18T08:38:31.317Z,24.42
2023-04-18T08:40:59.906Z,25.15
2023-04-18T08:43:30.318Z,23.65
2023-04-18T08:46:00.951Z,18.50
2023-04-18T08:48:29.639Z,22.98
2023-04-18T08:50:59.292Z,20.83
2023-04-18T08:53:29.330Z,21.80
2023-04-18T08:56:00.485Z,20.73
2023-04-18T09:01:02.558Z,19.50
2023-04-18T09:03:39.859Z,17.95
2023-04-18T09:06:10.542Z,17.80
2023-04-18T09:08:43.365Z,17.80
2023-04-18T09:11:26.195Z,18.17
2023-04-18T09:13:56.435Z,20.63
2023-04-18T09:16:25.446Z,21.38
2023-04-18T09:19:14.443Z,16.67
2023-04-18T09:21:46.451Z,20.27
2023-04-18T09:24:24.148Z,23.65
2023-04-18T09:26:54.241Z,24.30
2023-04-18T09:29:24.235Z,17.50
2023-04-18T09:32:03.000Z,16.02
2023-04-18T09:34:34.065Z,26.27
2023-04-18T09:37:10.433Z,20.85
2023-04-18T09:39:41.669Z,18.35
2023-04-18T09:42:11.264Z,19.00
2023-04-18T09:44:39.997Z,18.52
2023-04-18T09:47:08.930Z,14.48
2023-04-18T09:49:39.302Z,19.25
2023-04-18T09:52:08.977Z,16.10
2023-04-18T09:54:41.550Z,11.18
2023-04-18T09:57:13.792Z,15.00
2023-04-18T09:59:48.543Z,14.25
2023-04-18T10:02:22.333Z,18.67
2023-04-18T10:04:52.295Z,10.93
2023-04-18T10:07:22.404Z,13.50
2023-04-18T10:09:53.329Z,11.27
2023-04-18T10:12:22.037Z,13.55
2023-04-18T10:14:50.912Z,18.98
2023-04-18T10:20:07.236Z,13.98
2023-04-18T10:22:36.784Z,13.93
2023-04-18T10:25:08.156Z,16.55
2023-04-18T10:27:59.693Z,10.63
2023-04-18T10:30:52.352Z,12.73
2023-04-18T10:33:32.251Z,10.82
2023-04-18T10:36:16.213Z,14.13
2023-04-18T10:38:49.808Z,15.95
2023-04-18T10:41:27.537Z,13.55
2023-04-18T10:44:29.392Z,10.27
2023-04-18T10:47:25.576Z,16.83
2023-04-18T10:50:06.253Z,16.98
2023-04-18T10:52:35.660Z,14.95
2023-04-18T10:55:15.793Z,13.15
2023-04-18T10:57:47.002Z,16.00
2023-04-18T11:00:17.850Z,16.70
2023-04-18T11:02:52.189Z,12.48
2023-04-18T11:05:23.232Z,12.43
2023-04-18T11:07:51.852Z,24.38
2023-04-18T11:10:22.244Z,17.50
2023-04-18T11:12:52.806Z,14.05
2023-04-18T11:15:22.766Z,13.35
2023-04-18T11:17:59.322Z,14.27
2023-04-18T11:20:28.491Z,13.40
2023-04-18T11:22:58.387Z,15.07
2023-04-18T11:25:29.493Z,17.67
2023-04-18T11:28:03.799Z,16.88
2023-04-18T11:30:38.832Z,16.83
2023-04-18T11:33:10.316Z,11.48
2023-04-18T11:35:40.631Z,14.32
2023-04-18T11:38:11.788Z,12.70
2023-04-18T11:40:40.836Z,12.10
2023-04-18T11:43:10.668Z,13.98
2023-04-18T11:45:39.379Z,13.10
2023-04-18T11:48:07.899Z,13.48
2023-04-18T11:50:40.499Z,10.40
2023-04-18T11:53:13.089Z,14.43
2023-04-18T11:55:42.565Z,14.90
2023-04-18T11:58:14.881Z,16.13
2023-04-18T12:00:46.989Z,13.40
2023-04-18T12:03:17.994Z,15.50
2023-04-18T12:05:47.125Z,13.60
2023-04-18T12:08:20.106Z,18.20
2023-04-18T12:10:50.686Z,17.33
2023-04-18T12:13:36.953Z,12.77
2023-04-18T12:16:13.808Z,14.02
2023-04-18T12:21:32.561Z,13.77
2023-04-18T12:24:01.634Z,13.57
2023-04-18T12:26:30.150Z,13.38
2023-04-18T12:29:02.237Z,14.63
2023-04-18T12:31:30.738Z,15.45
2023-04-18T12:34:00.648Z,15.48
2023-04-18T12:36:29.224Z,16.05
2023-04-18T12:38:57.700Z,14.02
2023-04-18T12:42:10.796Z,12.32
2023-04-18T12:44:48.093Z,14.98
2023-04-18T12:47:22.119Z,14.65
2023-04-18T12:49:58.237Z,11.70
2023-04-18T12:52:27.245Z,14.95
2023-04-18T12:55:00.443Z,15.15
2023-04-18T12:57:30.581Z,14.02
2023-04-18T13:00:01.959Z,12.27
2023-04-18T13:02:38.552Z,12.82
2023-04-18T13:08:41.703Z,14.15
2023-04-18T13:11:10.600Z,11.68
2023-04-18T13:13:39.470Z,13.55
2023-04-18T13:16:09.693Z,13.88
2023-04-18T13:18:38.202Z,10.60
2023-04-18T13:21:06.902Z,12.20
2023-04-18T13:23:35.620Z,10.07
2023-04-18T13:26:04.092Z,13.40
2023-04-18T13:28:32.617Z,16.70
2023-04-18T13:31:01.093Z,13.93
2023-04-18T13:33:31.062Z,12.65
2023-04-18T13:35:59.727Z,9.23
2023-04-18T13:38:31.554Z,11.93
2023-04-18T13:41:11.538Z,10.50
2023-04-18T13:43:41.735Z,16.20
2023-04-18T13:46:13.281Z,13.45
2023-04-18T13:48:45.170Z,13.25
2023-04-18T13:51:16.597Z,10.85
2023-04-18T13:53:49.869Z,11.25
2023-04-18T13:56:23.743Z,13.07
2023-04-18T13:59:16.862Z,14.10
2023-04-18T14:01:47.277Z,12.88
2023-04-18T14:04:23.220Z,15.25
2023-04-18T14:06:54.951Z,11.30
2023-04-18T14:09:26.140Z,13.00
2023-04-18T14:11:58.456Z,11.32
2023-04-18T14:14:27.185Z,11.95
2023-04-18T14:16:55.883Z,13.23
2023-04-18T14:21:57.530Z,12.38
2023-04-18T14:24:26.351Z,10.35
2023-04-18T14:26:54.948Z,14.25
2023-04-18T14:29:23.452Z,11.88
2023-04-18T14:32:02.005Z,17.20
2023-04-18T14:34:38.846Z,15.65
2023-04-18T14:37:08.983Z,11.35
2023-04-18T14:39:40.546Z,17.25
2023-04-18T14:42:11.623Z,13.00
2023-04-18T14:44:40.313Z,16.05
2023-04-18T14:47:42.892Z,10.88
2023-04-18T14:50:18.302Z,13.02
2023-04-18T14:52:50.843Z,14.02
2023-04-18T14:55:24.706Z,13.48
2023-04-18T14:58:17.858Z,10.88
2023-04-18T15:01:25.267Z,13.55
2023-04-18T15:03:55.971Z,15.77
2023-04-18T15:06:30.655Z,10.30
2023-04-18T15:09:31.003Z,10.60
2023-04-18T15:12:10.386Z,13.30
2023-04-18T15:14:51.172Z,10.70
2023-04-18T15:17:21.934Z,11.68
2023-04-18T15:19:55.215Z,10.07
2023-04-18T15:22:25.317Z,14.40
2023-04-18T15:24:53.982Z,12.00
2023-04-18T15:27:29.877Z,9.45
2023-04-18T15:30:08.430Z,12.82
2023-04-18T15:32:37.017Z,12.38
2023-04-18T15:35:06.711Z,11.30
2023-04-18T15:37:37.001Z,11.07
2023-04-18T15:40:11.203Z,9.55
2023-04-18T15:42:43.321Z,11.05
2023-04-18T15:45:12.515Z,12.75
2023-04-18T15:47:41.897Z,11.68
2023-04-18T15:50:11.297Z,11.18
2023-04-18T15:52:42.285Z,12.27
2023-04-18T15:55:13.381Z,12.82
2023-04-18T15:57:42.543Z,14.05
2023-04-18T16:00:32.642Z,18.10
2023-04-18T16:03:10.579Z,12.77
2023-04-18T16:05:40.958Z,14.90
2023-04-18T16:08:11.012Z,13.10
2023-04-18T16:10:42.268Z,14.35
2023-04-18T16:13:14.082Z,11.65
2023-04-18T16:15:45.754Z,12.80
2023-04-18T16:18:14.428Z,12.00
2023-04-18T16:20:42.999Z,11.95
2023-04-18T16:23:12.882Z,10.50
2023-04-18T16:25:41.511Z,14.30
2023-04-18T16:28:10.613Z,12.77
2023-04-18T16:30:39.188Z,12.57
2023-04-18T16:33:08.840Z,15.27
2023-04-18T16:35:41.400Z,11.40
2023-04-18T16:38:10.117Z,12.98
2023-04-18T16:40:43.194Z,14.63
2023-04-18T16:43:13.171Z,13.25
2023-04-18T16:45:44.078Z,18.90
2023-04-18T16:48:12.849Z,14.48
2023-04-18T16:50:41.347Z,15.48
2023-04-18T16:53:14.498Z,16.23
2023-04-18T16:55:45.846Z,16.27
2023-04-18T16:58:14.542Z,13.45
2023-04-18T17:00:45.716Z,17.27
2023-04-18T17:03:14.512Z,18.25
2023-04-18T17:08:14.248Z,17.27
2023-04-18T17:10:44.249Z,18.60
2023-04-18T17:13:17.001Z,17.25
2023-04-18T17:15:45.694Z,18.25
2023-04-18T17:18:16.155Z,17.88
2023-04-18T17:20:44.771Z,16.73
2023-04-18T17:23:13.489Z,16.42
2023-04-18T17:25:41.956Z,16.42
2023-04-18T17:28:11.993Z,17.83
2023-04-18T17:30:42.803Z,16.13
2023-04-18T17:33:11.671Z,19.40
2023-04-18T17:35:42.219Z,17.30
2023-04-18T17:38:11.719Z,16.48
2023-04-18T17:40:40.752Z,18.00
2023-04-18T17:43:09.212Z,18.10
2023-04-18T17:45:39.292Z,15.27
2023-04-18T17:48:08.029Z,14.32
2023-04-18T17:50:38.177Z,15.15
2023-04-18T17:53:06.911Z,17.77
2023-04-18T17:55:35.780Z,14.82
2023-04-18T18:00:33.837Z,17.13
2023-04-18T18:03:04.555Z,15.23
2023-04-18T18:05:33.115Z,19.58
2023-04-18T18:08:01.695Z,20.40
2023-04-18T18:10:33.783Z,17.58
2023-04-18T18:13:02.292Z,15.30
2023-04-18T18:15:30.949Z,14.68
2023-04-18T18:17:59.740Z,17.33
2023-04-18T18:20:30.953Z,12.63
2023-04-18T18:23:00.333Z,11.75
2023-04-18T18:25:28.791Z,23.05
2023-04-18T18:27:57.258Z,14.07
2023-04-18T18:30:25.944Z,10.90
2023-04-18T18:32:54.654Z,13.48
2023-04-18T18:37:54.637Z,11.10
2023-04-18T18:40:25.352Z,16.05
2023-04-18T18:42:54.981Z,13.93
2023-04-18T18:45:23.907Z,12.43
2023-04-18T18:47:55.928Z,13.90
2023-04-18T18:50:24.594Z,11.63
2023-04-18T18:52:54.511Z,11.43
2023-04-18T18:55:23.142Z,13.60
2023-04-18T18:57:51.933Z,14.05
